Bookmark and Share
Track history (hours):
 

M/V MiSS Shirley

More information available from US FCC via Universal Licensing System and Coast Guard Vessel Documentation Center.

Last reported at 2013-Apr-28 21:33 UTC. Time now 2014-Apr-20 08:59 UTC.
Position N 38°33' W 090°14'.
Warning: this ship's position is months out of date.

Length 20 m; draft 3.1 m.

Type: Towing. MMSI: 367306940.

NotesDate/timePositionNaut miles runAvg speedWind from/ knotsBaromVisibWave heightAir tempDewpointWater temp
2013-Apr-28 21:33N 38°33' W 090°14'1 1.0
2013-Apr-28 20:34N 38°33' W 090°15'0 0.0
2013-Apr-28 19:34N 38°33' W 090°15'0 0.0
2013-Apr-28 18:33N 38°33' W 090°15'1 1.1
2013-Apr-28 17:32N 38°33' W 090°14'0 0.5
2013-Apr-28 16:31N 38°33' W 090°14'3 3.3
2013-Apr-28 15:33N 38°36' W 090°12'3 2.3
2013-Apr-28 14:11N 38°33' W 090°14'1 1.0
2013-Apr-28 13:33N 38°33' W 090°15'0 0.1
2013-Apr-28 12:33N 38°33' W 090°15'1 0.5
2013-Apr-28 11:33N 38°33' W 090°15'1 0.5
2013-Apr-28 10:23N 38°33' W 090°14'0 0.1
2013-Apr-28 09:26N 38°33' W 090°14'0 0.5
2013-Apr-28 08:32N 38°33' W 090°15'1 0.6
2013-Apr-28 07:25N 38°32' W 090°15'0 0.2
2013-Apr-28 06:33N 38°32' W 090°15'1 0.9
2013-Apr-28 05:33N 38°31' W 090°15'0 0.1
2013-Apr-28 04:33N 38°31' W 090°16'0 0.2
2013-Apr-28 03:33N 38°31' W 090°16'0 0.1
2013-Apr-28 02:33N 38°31' W 090°16'0 0.1
2013-Apr-28 01:33N 38°31' W 090°16'3 1.1
2013-Apr-27 23:14N 38°34' W 090°14'0 0.2
2013-Apr-27 22:29N 38°33' W 090°14'1 1.1
2013-Apr-27 21:33N 38°33' W 090°15'1 1.0
2013-Apr-27 20:32N 38°32' W 090°15'2 2.0
2013-Apr-27 19:33N 38°33' W 090°14'0 0.1
2013-Apr-27 18:26N 38°33' W 090°14'0 0.1
2013-Apr-27 17:29N 38°33' W 090°14'0 0.0
2013-Apr-27 16:13N 38°33' W 090°14'0 0.0
2013-Apr-27 15:28N 38°33' W 090°14'0 0.5
2013-Apr-27 14:28N 38°33' W 090°15'0 0.5
2013-Apr-27 13:33N 38°33' W 090°14'1 0.4
2013-Apr-27 11:31N 38°33' W 090°15'0 0.3
2013-Apr-27 10:29N 38°33' W 090°14'1 0.6
2013-Apr-27 09:25N 38°33' W 090°15'0 0.1
2013-Apr-27 08:33N 38°33' W 090°15'0 0.4
2013-Apr-27 07:33N 38°33' W 090°15'0 0.0
2013-Apr-27 06:32N 38°33' W 090°15'1 0.3
2013-Apr-27 04:33N 38°33' W 090°15'0 0.3
2013-Apr-27 03:33N 38°33' W 090°15'1 1.3
2013-Apr-27 02:31N 38°32' W 090°16'0 0.3
2013-Apr-27 01:32N 38°32' W 090°15'1 0.4
2013-Apr-27 00:08N 38°32' W 090°15'1 1.1
2013-Apr-26 23:33N 38°33' W 090°15'1 0.9
2013-Apr-26 22:33N 38°32' W 090°15'0 0.3
2013-Apr-26 21:33N 38°32' W 090°15'0 0.2
2013-Apr-26 20:33N 38°32' W 090°16'1 1.0
2013-Apr-26 19:33N 38°33' W 090°15'0 0.1
2013-Apr-26 18:33N 38°33' W 090°15'0 0.3
2013-Apr-26 17:33N 38°32' W 090°15'0 0.4
2013-Apr-26 16:34N 38°33' W 090°15'1 0.6
2013-Apr-26 15:26N 38°33' W 090°14'0 0.3
2013-Apr-26 14:33N 38°33' W 090°14'1 0.5
2013-Apr-26 13:33N 38°33' W 090°15'0 0.3
2013-Apr-26 12:05N 38°32' W 090°15'0 0.2
2013-Apr-26 11:33N 38°32' W 090°15'1 0.4
2013-Apr-26 09:33N 38°33' W 090°15'1 0.5
2013-Apr-26 08:33N 38°33' W 090°14'0 0.2
2013-Apr-26 07:14N 38°33' W 090°14'2 2.8
2013-Apr-26 06:31N 38°31' W 090°15'0 0.1
2013-Apr-26 05:33N 38°31' W 090°16'0 0.1
2013-Apr-26 04:33N 38°31' W 090°16'0 0.1
2013-Apr-26 03:33N 38°31' W 090°16'2 1.7
2013-Apr-26 02:22N 38°29' W 090°17'3 1.4
2013-Apr-26 00:32N 38°32' W 090°16'1 0.6
2013-Apr-25 22:04N 38°33' W 090°15'0 0.3
2013-Apr-25 21:25N 38°33' W 090°15'0 0.0
2013-Apr-25 20:32N 38°33' W 090°15'0 0.3
2013-Apr-25 19:21N 38°33' W 090°15'2 2.7
2013-Apr-25 18:33N 38°31' W 090°16'0 0.5
2013-Apr-25 17:29N 38°32' W 090°16'1 0.6
2013-Apr-25 16:03N 38°32' W 090°15'0 0.7
2013-Apr-25 15:31N 38°32' W 090°15'0 0.2
2013-Apr-25 14:33N 38°32' W 090°15'0 0.2
2013-Apr-25 13:31N 38°32' W 090°15'0 0.4
2013-Apr-25 12:20N 38°32' W 090°15'1 0.7
2013-Apr-25 11:33N 38°33' W 090°15'0 0.1
2013-Apr-25 10:33N 38°33' W 090°15'0 0.3
2013-Apr-25 09:33N 38°33' W 090°15'1 0.9
2013-Apr-25 08:33N 38°32' W 090°15'0 0.0
2013-Apr-25 07:33N 38°32' W 090°15'0 0.0
2013-Apr-25 06:32N 38°32' W 090°15'0 0.0
2013-Apr-25 04:33N 38°32' W 090°15'0 0.1
2013-Apr-25 03:33N 38°32' W 090°15'0 0.0
2013-Apr-25 02:32N 38°32' W 090°15'1 0.7
2013-Apr-25 01:31N 38°33' W 090°15'0 0.1
2013-Apr-25 00:10N 38°32' W 090°15'1 1.7
2013-Apr-24 23:33N 38°33' W 090°14'0 0.2
2013-Apr-24 22:31N 38°33' W 090°14'1 0.8
2013-Apr-24 21:33N 38°32' W 090°15'1 1.0
2013-Apr-24 20:33N 38°32' W 090°15'1 1.2
2013-Apr-24 19:33N 38°33' W 090°15'1 1.0
2013-Apr-24 18:30N 38°32' W 090°15'0 0.2
2013-Apr-24 17:33N 38°32' W 090°15'0 0.1
2013-Apr-24 16:32N 38°32' W 090°15'0 0.2
2013-Apr-24 15:33N 38°32' W 090°15'0 0.1
2013-Apr-24 14:31N 38°32' W 090°15'1 0.5
2013-Apr-24 13:23N 38°32' W 090°15'0 0.2
2013-Apr-24 12:23N 38°32' W 090°15'0 0.3
2013-Apr-24 11:33N 38°32' W 090°15'1 0.7
2013-Apr-24 10:09N 38°33' W 090°15'1 1.8
2013-Apr-24 09:34N 38°32' W 090°15'0 0.0
2013-Apr-24 08:29N 38°32' W 090°15'0 0.0
2013-Apr-24 07:33N 38°32' W 090°15'0 0.2
2013-Apr-24 06:31N 38°32' W 090°15'0 0.2
2013-Apr-24 04:33N 38°32' W 090°15'0 0.2
2013-Apr-24 03:34N 38°32' W 090°15'0 0.1
2013-Apr-24 02:06N 38°32' W 090°15'0 0.3
2013-Apr-24 01:33N 38°32' W 090°15'1 0.5
2013-Apr-23 23:33N 38°33' W 090°15'1 1.0
2013-Apr-23 22:29N 38°34' W 090°14'1 1.3
2013-Apr-23 21:33N 38°33' W 090°15'0 0.4
2013-Apr-23 20:29N 38°32' W 090°15'1 0.6
2013-Apr-23 19:10N 38°33' W 090°15'1 1.0
2013-Apr-23 18:33N 38°32' W 090°15'0 0.0
2013-Apr-23 17:28N 38°32' W 090°15'0 0.1
2013-Apr-23 16:33N 38°32' W 090°15'0 0.0
2013-Apr-23 15:33N 38°33' W 090°15'0 0.1
2013-Apr-23 14:16N 38°32' W 090°15'0 0.1
2013-Apr-23 13:32N 38°32' W 090°15'0 0.2
2013-Apr-23 12:33N 38°33' W 090°15'0 0.5
2013-Apr-23 11:30N 38°32' W 090°15'0 0.1
2013-Apr-23 10:33N 38°32' W 090°15'2 1.7
2013-Apr-23 09:33N 38°33' W 090°14'1 1.0
2013-Apr-23 08:34N 38°33' W 090°15'0 0.0
2013-Apr-23 07:33N 38°33' W 090°15'0 0.0
2013-Apr-23 06:33N 38°33' W 090°15'0 0.0
2013-Apr-23 05:32N 38°33' W 090°15'0 0.1
2013-Apr-23 04:33N 38°33' W 090°15'1 0.6
2013-Apr-23 03:28N 38°33' W 090°14'0 0.1
2013-Apr-23 02:33N 38°33' W 090°15'0 0.0
2013-Apr-23 01:28N 38°33' W 090°15'1 0.7
2013-Apr-23 00:33N 38°32' W 090°15'0 0.3
2013-Apr-22 23:27N 38°33' W 090°15'1 0.5
2013-Apr-22 22:18N 38°32' W 090°15'1 1.2
2013-Apr-22 21:33N 38°33' W 090°15'1 0.6
2013-Apr-22 20:33N 38°33' W 090°14'1 0.5
2013-Apr-22 19:12N 38°33' W 090°15'1 1.5
2013-Apr-22 18:30N 38°32' W 090°15'0 0.1
2013-Apr-22 17:32N 38°32' W 090°15'1 1.0
2013-Apr-22 16:33N 38°33' W 090°15'0 0.1
2013-Apr-22 14:29N 38°33' W 090°14'0 0.1
2013-Apr-22 13:33N 38°33' W 090°14'0 0.3
2013-Apr-22 12:33N 38°33' W 090°15'0 0.3
2013-Apr-22 11:33N 38°33' W 090°15'1 1.0
2013-Apr-22 10:32N 38°34' W 090°14'0 0.0
2013-Apr-22 09:31N 38°34' W 090°14'1 0.8
2013-Apr-22 08:34N 38°33' W 090°15'1 0.5
2013-Apr-22 07:28N 38°33' W 090°15'1 0.7
2013-Apr-22 06:33N 38°33' W 090°14'0 0.0
2013-Apr-22 04:34N 38°33' W 090°14'1 1.4
2013-Apr-22 03:33N 38°32' W 090°15'1 0.8
2013-Apr-22 02:34N 38°31' W 090°16'1 0.7
2013-Apr-22 01:33N 38°32' W 090°16'1 0.5
2013-Apr-22 00:06N 38°32' W 090°15'1 1.4
2013-Apr-21 23:27N 38°33' W 090°14'1 0.1
2013-Apr-21 18:20N 38°34' W 090°14'3 4.1
2013-Apr-21 17:33N 38°36' W 090°11'4 3.9
2013-Apr-21 16:33N 38°40' W 090°11'3 2.6
2013-Apr-21 15:33N 38°38' W 090°11'3 2.4
2013-Apr-21 14:24N 38°35' W 090°12'2 2.4
2013-Apr-21 13:32N 38°33' W 090°14'1 1.0
2013-Apr-21 12:32N 38°33' W 090°15'0 0.3
2013-Apr-21 11:29N 38°33' W 090°15'2 1.6
2013-Apr-21 10:33N 38°32' W 090°15'0 0.4
2013-Apr-21 09:33N 38°31' W 090°16'0 0.2
2013-Apr-21 08:33N 38°31' W 090°16'1 0.1
2013-Apr-21 04:19N 38°31' W 090°16'0 0.1
2013-Apr-21 03:31N 38°31' W 090°16'1 1.3
2013-Apr-21 02:34N 38°32' W 090°15'0 0.1
2013-Apr-21 01:34N 38°32' W 090°16'1 0.7
2013-Apr-21 00:33N 38°32' W 090°15'1 0.7
2013-Apr-20 23:31N 38°33' W 090°15'1 0.6
2013-Apr-20 22:33N 38°33' W 090°15'0 0.2
2013-Apr-20 21:33N 38°33' W 090°15'1 0.5
2013-Apr-20 20:06N 38°32' W 090°15'0 0.3
2013-Apr-20 19:28N 38°32' W 090°15'0 0.4
2013-Apr-20 18:30N 38°32' W 090°16'0 0.1
2013-Apr-20 17:33N 38°32' W 090°16'0 0.2
2013-Apr-20 16:31N 38°32' W 090°15'1 1.0
2013-Apr-20 15:33N 38°33' W 090°15'1 0.9
2013-Apr-20 14:33N 38°32' W 090°15'0 0.0
2013-Apr-20 13:33N 38°32' W 090°15'0 0.1
2013-Apr-20 12:33N 38°32' W 090°15'1 0.8
2013-Apr-20 11:34N 38°33' W 090°15'1 0.8
2013-Apr-20 10:34N 38°32' W 090°15'0 0.0
2013-Apr-20 09:33N 38°32' W 090°15'0 0.0
2013-Apr-20 08:33N 38°32' W 090°15'0 0.1
2013-Apr-20 07:33N 38°32' W 090°15'0 0.0
2013-Apr-20 06:34N 38°32' W 090°15'1 0.2
2013-Apr-20 04:10N 38°31' W 090°16'0 0.1
2013-Apr-20 03:31N 38°31' W 090°16'0 0.4
2013-Apr-20 02:34N 38°32' W 090°15'0 0.4
2013-Apr-20 01:33N 38°31' W 090°16'0 0.0
2013-Apr-20 00:33N 38°31' W 090°16'1 1.3
2013-Apr-19 23:27N 38°33' W 090°15'0 0.2
2013-Apr-19 22:25N 38°33' W 090°15'0 0.1
2013-Apr-19 21:13N 38°33' W 090°15'0 0.3
2013-Apr-19 20:31N 38°33' W 090°15'8 8.0
2013-Apr-19 19:33N 38°40' W 090°11'9 4.0
2013-Apr-19 17:18N 38°32' W 090°16'4 5.2
2013-Apr-19 16:33N 38°35' W 090°13'2 2.0
2013-Apr-19 15:22N 38°33' W 090°15'1 0.6
2013-Apr-19 13:30N 38°32' W 090°15'0 0.2
2013-Apr-19 11:33N 38°32' W 090°15'0 0.0
2013-Apr-19 10:22N 38°32' W 090°15'0 0.1
2013-Apr-19 09:33N 38°32' W 090°15'0 0.3
2013-Apr-19 08:33N 38°31' W 090°16'2 1.8
2013-Apr-19 07:32N 38°33' W 090°14'3 3.1
2013-Apr-19 06:32N 38°35' W 090°12'5 2.5
2013-Apr-19 04:30N 38°31' W 090°16'1 0.6
2013-Apr-19 03:33N 38°32' W 090°15'0 0.0
2013-Apr-19 02:33N 38°32' W 090°15'0 0.1
2013-Apr-19 01:27N 38°32' W 090°15'0 0.5
2013-Apr-19 00:33N 38°32' W 090°16'0 0.2
2013-Apr-18 22:05N 38°32' W 090°15'  

Dump ship's entire track history

sailing weather and tide predictions

M/V MiSS Shirley — WDD9105 — position and weather